createdAt,value
2019-05-06T00:00:14.720Z,10.88
2019-05-06T00:02:43.668Z,11.12
2019-05-06T00:05:14.293Z,10.85
2019-05-06T00:07:44.491Z,10.32
2019-05-06T00:10:30.169Z,12.30
2019-05-06T00:12:58.752Z,13.35
2019-05-06T00:15:27.409Z,12.70
2019-05-06T00:17:55.989Z,12.55
2019-05-06T00:20:24.578Z,10.58
2019-05-06T00:22:54.804Z,13.10
2019-05-06T00:25:34.879Z,9.00
2019-05-06T00:28:20.962Z,10.80
2019-05-06T00:30:51.021Z,9.73
2019-05-06T00:33:19.701Z,13.80
2019-05-06T00:35:48.133Z,15.68
2019-05-06T00:38:16.546Z,9.88
2019-05-06T00:40:54.247Z,10.68
2019-05-06T00:43:23.579Z,10.65
2019-05-06T00:45:53.658Z,10.70
2019-05-06T00:48:24.290Z,9.35
2019-05-06T00:50:53.566Z,11.05
2019-05-06T00:53:23.975Z,11.50
2019-05-06T00:55:53.790Z,10.03
2019-05-06T00:58:23.852Z,11.50
2019-05-06T01:00:53.863Z,13.30
2019-05-06T01:03:23.930Z,12.37
2019-05-06T01:05:54.252Z,13.30
2019-05-06T01:08:23.959Z,11.00
2019-05-06T01:10:54.477Z,13.27
2019-05-06T01:13:27.081Z,12.37
2019-05-06T01:15:55.508Z,11.00
2019-05-06T01:18:24.485Z,11.13
2019-05-06T01:20:54.683Z,10.60
2019-05-06T01:23:23.501Z,10.70
2019-05-06T01:25:51.970Z,11.18
2019-05-06T01:28:20.401Z,9.38
2019-05-06T01:30:48.837Z,12.00
2019-05-06T01:33:17.264Z,12.30
2019-05-06T01:35:45.682Z,14.90
2019-05-06T01:38:21.671Z,9.70
2019-05-06T01:40:51.733Z,12.33
2019-05-06T01:43:24.055Z,10.98
2019-05-06T01:45:53.646Z,12.40
2019-05-06T01:48:24.514Z,13.13
2019-05-06T01:50:54.030Z,11.45
2019-05-06T01:53:24.177Z,12.53
2019-05-06T01:55:54.481Z,10.63
2019-05-06T01:58:24.267Z,10.50
2019-05-06T02:00:54.395Z,12.10
2019-05-06T02:03:24.211Z,12.73
2019-05-06T02:05:53.941Z,10.05
2019-05-06T02:08:24.345Z,9.20
2019-05-06T02:10:54.514Z,9.37
2019-05-06T02:13:23.819Z,10.85
2019-05-06T02:15:54.636Z,9.55
2019-05-06T02:18:24.324Z,12.58
2019-05-06T02:21:05.438Z,9.40
2019-05-06T02:23:41.589Z,10.08
2019-05-06T02:26:10.004Z,12.37
2019-05-06T02:28:40.076Z,11.33
2019-05-06T02:31:25.851Z,11.55
2019-05-06T02:34:04.923Z,9.68
2019-05-06T02:36:36.445Z,11.20
2019-05-06T02:39:06.990Z,9.85
2019-05-06T02:41:35.401Z,13.40
2019-05-06T02:44:03.936Z,10.50
2019-05-06T02:46:33.763Z,11.75
2019-05-06T02:49:04.144Z,13.30
2019-05-06T02:51:33.337Z,11.83
2019-05-06T02:54:03.221Z,10.82
2019-05-06T02:56:33.331Z,10.53
2019-05-06T02:59:03.986Z,11.05
2019-05-06T03:01:34.004Z,12.45
2019-05-06T03:04:04.392Z,14.15
2019-05-06T03:06:33.846Z,12.20
2019-05-06T03:09:03.244Z,13.45
2019-05-06T03:11:33.155Z,13.60
2019-05-06T03:14:03.256Z,12.70
2019-05-06T03:16:33.303Z,11.38
2019-05-06T03:19:04.162Z,15.40
2019-05-06T03:21:37.114Z,15.85
2019-05-06T03:24:19.193Z,10.88
2019-05-06T03:26:49.262Z,13.25
2019-05-06T03:29:17.680Z,14.90
2019-05-06T03:31:46.701Z,11.78
2019-05-06T03:34:35.765Z,13.43
2019-05-06T03:36:48.362Z,11.65
2019-05-06T03:39:15.524Z,12.40
2019-05-06T03:41:44.036Z,13.30
2019-05-06T03:44:16.370Z,12.60
2019-05-06T03:47:05.244Z,14.90
2019-05-06T03:49:33.874Z,13.75
2019-05-06T03:52:02.854Z,12.03
2019-05-06T03:54:34.294Z,14.35
2019-05-06T03:57:04.173Z,11.70
2019-05-06T03:59:33.928Z,13.53
2019-05-06T04:02:05.117Z,11.73
2019-05-06T04:04:33.316Z,12.63
2019-05-06T04:07:03.359Z,12.10
2019-05-06T04:09:36.265Z,14.80
2019-05-06T04:12:03.703Z,14.23
2019-05-06T04:14:33.773Z,14.38
2019-05-06T04:17:18.936Z,14.53
2019-05-06T04:19:55.030Z,14.58
2019-05-06T04:22:25.106Z,12.50
2019-05-06T04:24:55.225Z,13.62
2019-05-06T04:27:28.489Z,12.80
2019-05-06T04:29:57.208Z,14.07
2019-05-06T04:32:25.651Z,15.90
2019-05-06T04:34:54.231Z,15.05
2019-05-06T04:37:24.169Z,14.38
2019-05-06T04:39:53.542Z,12.43
2019-05-06T04:42:26.325Z,14.40
2019-05-06T04:44:53.106Z,13.35
2019-05-06T04:47:24.100Z,13.28
2019-05-06T04:49:53.126Z,11.12
2019-05-06T04:52:22.813Z,14.18
2019-05-06T04:54:53.459Z,13.78
2019-05-06T04:57:23.882Z,13.53
2019-05-06T04:59:54.277Z,12.23
2019-05-06T05:02:23.075Z,10.90
2019-05-06T05:04:53.025Z,13.27
2019-05-06T05:07:22.483Z,11.75
2019-05-06T05:09:53.499Z,10.95
2019-05-06T05:12:23.877Z,9.80
2019-05-06T05:14:53.948Z,11.38
2019-05-06T05:17:33.142Z,13.58
2019-05-06T05:20:02.171Z,9.80
2019-05-06T05:22:32.494Z,13.25
2019-05-06T05:25:03.274Z,10.72
2019-05-06T05:27:32.930Z,9.23
2019-05-06T05:30:02.037Z,13.85
2019-05-06T05:32:32.101Z,11.10
2019-05-06T05:35:02.090Z,12.73
2019-05-06T05:37:32.711Z,13.40
2019-05-06T05:40:03.119Z,11.55
2019-05-06T05:42:32.973Z,8.20
2019-05-06T05:45:02.677Z,10.70
2019-05-06T05:47:33.154Z,10.67
2019-05-06T05:50:03.292Z,9.28
2019-05-06T05:52:32.908Z,11.15
2019-05-06T05:55:02.848Z,9.88
2019-05-06T05:57:32.224Z,9.30
2019-05-06T06:00:00.854Z,9.55
2019-05-06T06:02:29.846Z,9.83
2019-05-06T06:04:58.268Z,8.78
2019-05-06T06:07:26.697Z,10.25
2019-05-06T06:09:56.852Z,9.00
2019-05-06T06:12:25.346Z,11.55
2019-05-06T06:15:02.263Z,9.50
2019-05-06T06:17:47.504Z,9.13
2019-05-06T06:20:34.600Z,11.22
2019-05-06T06:23:04.725Z,9.18
2019-05-06T06:25:33.544Z,9.68
2019-05-06T06:28:02.763Z,12.40
2019-05-06T06:30:33.185Z,8.35
2019-05-06T06:33:02.644Z,9.38
2019-05-06T06:35:38.833Z,11.93
2019-05-06T06:38:08.902Z,11.05
2019-05-06T06:40:37.332Z,10.70
2019-05-06T06:43:07.380Z,9.13
2019-05-06T06:45:36.089Z,10.65
2019-05-06T06:48:04.684Z,10.13
2019-05-06T06:50:33.314Z,9.53
2019-05-06T06:53:03.015Z,8.38
2019-05-06T06:55:31.940Z,11.22
2019-05-06T06:58:03.155Z,8.70
2019-05-06T07:00:45.048Z,10.78
2019-05-06T07:03:15.117Z,9.30
2019-05-06T07:05:45.173Z,9.13
2019-05-06T07:08:13.615Z,9.45
2019-05-06T07:10:44.617Z,8.78
2019-05-06T07:13:14.261Z,9.10
2019-05-06T07:15:42.867Z,9.33
2019-05-06T07:18:13.484Z,8.85
2019-05-06T07:20:58.992Z,8.13
2019-05-06T07:23:36.950Z,9.15
2019-05-06T07:26:08.572Z,10.32
2019-05-06T07:28:43.665Z,6.85
2019-05-06T07:31:22.391Z,10.13
2019-05-06T07:33:47.239Z,8.28
2019-05-06T07:36:15.657Z,7.20
2019-05-06T07:38:49.868Z,7.03
2019-05-06T07:41:23.577Z,7.67
2019-05-06T07:43:59.053Z,5.40
2019-05-06T07:46:29.105Z,6.67
2019-05-06T07:48:57.528Z,7.08
2019-05-06T07:51:25.958Z,6.78
2019-05-06T07:53:54.399Z,7.80
2019-05-06T07:56:23.685Z,6.40
2019-05-06T07:58:53.778Z,6.37
2019-05-06T08:01:25.898Z,7.53
2019-05-06T08:03:53.284Z,6.22
2019-05-06T08:06:22.709Z,7.03
2019-05-06T08:08:53.647Z,6.08
2019-05-06T08:11:22.275Z,6.40
2019-05-06T08:13:52.750Z,8.45
2019-05-06T08:16:22.637Z,6.42
2019-05-06T08:18:52.461Z,6.33
2019-05-06T08:21:23.513Z,6.70
2019-05-06T08:23:53.107Z,5.15
2019-05-06T08:26:22.436Z,8.03
2019-05-06T08:28:52.658Z,6.72
2019-05-06T08:31:22.473Z,6.17
2019-05-06T08:33:52.415Z,5.40
2019-05-06T08:36:22.741Z,9.98
2019-05-06T08:38:58.752Z,6.28
2019-05-06T08:41:27.766Z,8.05
2019-05-06T08:43:56.388Z,6.33
2019-05-06T08:46:25.027Z,6.60
2019-05-06T08:48:53.452Z,7.10
2019-05-06T08:51:23.522Z,5.65
2019-05-06T08:53:53.581Z,6.47
2019-05-06T08:56:22.141Z,5.28
2019-05-06T08:58:52.797Z,6.92
2019-05-06T09:01:26.056Z,6.80
2019-05-06T09:04:08.336Z,6.45
2019-05-06T09:06:30.198Z,6.00
2019-05-06T09:08:56.797Z,8.40
2019-05-06T09:11:25.867Z,5.12
2019-05-06T09:13:54.401Z,8.68
2019-05-06T09:16:22.839Z,8.23
2019-05-06T09:18:53.317Z,8.50
2019-05-06T09:21:22.630Z,5.62
2019-05-06T09:23:53.198Z,7.28
2019-05-06T09:26:25.937Z,8.55
2019-05-06T09:29:07.876Z,7.37
2019-05-06T09:31:42.564Z,6.35
2019-05-06T09:34:13.070Z,6.33
2019-05-06T09:36:51.465Z,8.35
2019-05-06T09:39:12.986Z,5.75
2019-05-06T09:41:46.608Z,5.95
2019-05-06T09:44:12.448Z,5.65
2019-05-06T09:46:42.643Z,4.53
2019-05-06T09:49:12.889Z,4.20
2019-05-06T09:51:42.441Z,6.55
2019-05-06T09:54:24.853Z,6.45
2019-05-06T09:56:55.434Z,6.20
2019-05-06T09:59:23.921Z,6.75
2019-05-06T10:01:52.928Z,7.03
2019-05-06T10:04:21.454Z,4.90
2019-05-06T10:06:57.349Z,7.25
2019-05-06T10:09:20.075Z,5.92
2019-05-06T10:11:48.568Z,4.87
2019-05-06T10:14:16.989Z,4.20
2019-05-06T10:16:45.425Z,4.53
2019-05-06T10:19:13.841Z,4.22
2019-05-06T10:21:42.756Z,5.25
2019-05-06T10:24:11.327Z,5.78
2019-05-06T10:26:43.163Z,4.67
2019-05-06T10:29:15.845Z,4.00
2019-05-06T10:31:52.395Z,5.47
2019-05-06T10:34:22.238Z,4.00
2019-05-06T10:37:18.018Z,4.95
2019-05-06T10:39:43.331Z,5.12
2019-05-06T10:42:14.837Z,4.20
2019-05-06T10:44:48.979Z,6.03
2019-05-06T10:47:17.425Z,5.97
2019-05-06T10:49:45.842Z,5.22
2019-05-06T10:52:24.790Z,4.45
2019-05-06T10:54:53.453Z,5.40
2019-05-06T10:57:32.854Z,4.30
2019-05-06T11:00:01.403Z,4.42
2019-05-06T11:02:40.071Z,5.80
2019-05-06T11:05:08.496Z,4.33
2019-05-06T11:07:36.947Z,4.42
2019-05-06T11:10:06.129Z,5.35
2019-05-06T11:12:34.554Z,5.55
2019-05-06T11:15:03.646Z,5.08
2019-05-06T11:17:32.662Z,8.55
2019-05-06T11:20:03.463Z,4.22
2019-05-06T11:22:32.734Z,5.35
2019-05-06T11:25:03.130Z,4.58
2019-05-06T11:27:33.256Z,6.20
2019-05-06T11:30:03.609Z,7.47
2019-05-06T11:32:36.395Z,7.45
2019-05-06T11:35:13.158Z,6.57
2019-05-06T11:37:49.784Z,7.70
2019-05-06T11:40:16.869Z,8.25
2019-05-06T11:42:43.909Z,7.17
2019-05-06T11:45:12.693Z,6.20
2019-05-06T11:47:42.104Z,3.87
2019-05-06T11:50:13.000Z,4.42
2019-05-06T11:52:43.450Z,3.50
2019-05-06T11:55:12.609Z,5.55
2019-05-06T11:57:44.663Z,4.12
2019-05-06T12:00:17.668Z,5.95
2019-05-06T12:02:48.621Z,5.20
2019-05-06T12:05:16.552Z,6.08
2019-05-06T12:08:01.173Z,5.90
2019-05-06T12:10:15.303Z,6.73
2019-05-06T12:12:43.722Z,6.27
2019-05-06T12:15:12.712Z,6.00
2019-05-06T12:17:42.179Z,4.00
2019-05-06T12:20:12.923Z,3.95
2019-05-06T12:22:42.383Z,3.07
2019-05-06T12:25:15.288Z,4.50
2019-05-06T12:27:44.513Z,3.30
2019-05-06T12:30:15.694Z,5.15
2019-05-06T12:32:48.445Z,5.40
2019-05-06T12:35:16.871Z,5.00
2019-05-06T12:37:46.929Z,4.42
2019-05-06T12:40:15.702Z,5.85
2019-05-06T12:42:53.504Z,4.50
2019-05-06T12:45:23.591Z,4.00
2019-05-06T12:47:53.917Z,4.58
2019-05-06T12:50:22.887Z,3.72
2019-05-06T12:52:52.627Z,5.50
2019-05-06T12:55:25.306Z,6.40
2019-05-06T12:57:53.211Z,4.92
2019-05-06T13:00:23.605Z,3.37
2019-05-06T13:02:53.110Z,7.25
2019-05-06T13:05:21.682Z,5.12
2019-05-06T13:07:52.562Z,7.22
2019-05-06T13:10:23.031Z,4.37
2019-05-06T13:12:54.112Z,6.00
2019-05-06T13:15:24.417Z,6.55
2019-05-06T13:17:53.273Z,6.65
2019-05-06T13:20:22.879Z,6.47
2019-05-06T13:22:53.641Z,8.65
2019-05-06T13:25:23.402Z,6.67
2019-05-06T13:27:52.813Z,9.10
2019-05-06T13:30:22.771Z,6.67
2019-05-06T13:32:55.893Z,7.17
2019-05-06T13:35:24.319Z,6.87
2019-05-06T13:37:52.857Z,5.72
2019-05-06T13:40:22.936Z,8.30
2019-05-06T13:43:02.241Z,7.87
2019-05-06T13:45:52.725Z,5.90
2019-05-06T13:48:25.251Z,14.58
2019-05-06T13:50:58.029Z,6.00
2019-05-06T13:53:38.772Z,6.40
2019-05-06T13:55:56.627Z,5.87
2019-05-06T13:58:25.138Z,6.40
2019-05-06T14:00:54.054Z,7.30
2019-05-06T14:03:22.476Z,5.20
2019-05-06T14:05:52.078Z,4.90
2019-05-06T14:08:22.145Z,6.80
2019-05-06T14:10:57.488Z,9.30
2019-05-06T14:13:22.032Z,7.65
2019-05-06T14:15:52.664Z,6.35
2019-05-06T14:18:22.533Z,7.15
2019-05-06T14:20:52.108Z,6.90
2019-05-06T14:23:22.100Z,6.87
2019-05-06T14:26:08.403Z,7.30
2019-05-06T14:28:38.774Z,7.53
2019-05-06T14:31:11.765Z,5.97
2019-05-06T14:33:42.642Z,4.50
2019-05-06T14:36:12.664Z,5.50
2019-05-06T14:38:42.810Z,7.20
2019-05-06T14:41:15.368Z,8.90
2019-05-06T14:43:43.881Z,6.30
2019-05-06T14:46:12.319Z,8.40
2019-05-06T14:48:42.920Z,7.40
2019-05-06T14:51:12.902Z,6.85
2019-05-06T14:53:43.368Z,7.40
2019-05-06T14:56:32.085Z,6.60
2019-05-06T14:59:03.891Z,9.10
2019-05-06T15:01:33.570Z,7.45
2019-05-06T15:04:02.605Z,8.03
2019-05-06T15:06:33.013Z,7.92
2019-05-06T15:09:03.774Z,8.25
2019-05-06T15:11:32.475Z,8.88
2019-05-06T15:14:03.566Z,5.62
2019-05-06T15:16:33.593Z,7.75
2019-05-06T15:19:03.767Z,8.13
2019-05-06T15:21:37.798Z,5.80
2019-05-06T15:24:02.641Z,5.85
2019-05-06T15:26:33.222Z,9.15
2019-05-06T15:29:03.376Z,7.10
2019-05-06T15:31:35.870Z,9.60
2019-05-06T15:34:14.745Z,7.53
2019-05-06T15:36:47.785Z,3.77
2019-05-06T15:39:16.234Z,6.20
2019-05-06T15:41:44.657Z,7.50
2019-05-06T15:44:13.085Z,5.70
2019-05-06T15:46:43.070Z,7.37
2019-05-06T15:49:11.621Z,5.63
2019-05-06T15:51:40.056Z,6.05
2019-05-06T15:54:08.734Z,7.60
2019-05-06T15:56:37.165Z,6.30
2019-05-06T15:59:05.675Z,6.50
2019-05-06T16:01:34.396Z,6.00
2019-05-06T16:04:02.894Z,7.85
2019-05-06T16:06:33.125Z,8.45
2019-05-06T16:09:03.568Z,7.47
2019-05-06T16:11:32.942Z,8.68
2019-05-06T16:14:02.911Z,10.33
2019-05-06T16:16:32.708Z,7.57
2019-05-06T16:19:03.978Z,7.37
2019-05-06T16:21:33.440Z,8.10
2019-05-06T16:24:03.738Z,5.70
2019-05-06T16:26:32.181Z,9.30
2019-05-06T16:29:02.378Z,6.67
2019-05-06T16:31:32.950Z,9.08
2019-05-06T16:34:03.128Z,10.58
2019-05-06T16:36:32.435Z,9.48
2019-05-06T16:39:03.269Z,10.20
2019-05-06T16:41:31.453Z,9.48
2019-05-06T16:44:02.014Z,8.83
2019-05-06T16:46:33.951Z,8.35
2019-05-06T16:49:02.238Z,10.63
2019-05-06T16:51:32.559Z,7.85
2019-05-06T16:54:02.138Z,7.60
2019-05-06T16:56:33.255Z,4.60
2019-05-06T16:59:03.520Z,6.40
2019-05-06T17:01:34.501Z,5.28
2019-05-06T17:04:19.197Z,6.60
2019-05-06T17:06:48.742Z,5.90
2019-05-06T17:09:21.313Z,7.87
2019-05-06T17:11:47.305Z,6.15
2019-05-06T17:14:15.737Z,6.28
2019-05-06T17:16:44.167Z,6.50
2019-05-06T17:19:12.894Z,9.43
2019-05-06T17:21:42.291Z,7.75
2019-05-06T17:24:12.839Z,10.70
2019-05-06T17:26:42.693Z,6.83
2019-05-06T17:29:24.383Z,5.60
2019-05-06T17:32:02.338Z,7.55
2019-05-06T17:34:34.857Z,7.85
2019-05-06T17:37:04.917Z,5.95
2019-05-06T17:39:33.339Z,7.83
2019-05-06T17:42:01.766Z,8.80
2019-05-06T17:44:32.195Z,6.72
2019-05-06T17:47:02.681Z,8.13
2019-05-06T17:49:32.912Z,7.37
2019-05-06T17:52:03.133Z,6.35
2019-05-06T17:54:32.389Z,6.97
2019-05-06T17:57:03.812Z,5.67
2019-05-06T17:59:33.179Z,5.53
2019-05-06T18:02:02.912Z,6.92
2019-05-06T18:04:31.333Z,7.10
2019-05-06T18:06:59.753Z,7.60
2019-05-06T18:09:28.180Z,7.87
2019-05-06T18:11:59.267Z,7.58
2019-05-06T18:14:26.759Z,6.53
2019-05-06T18:16:55.175Z,5.17
2019-05-06T18:19:23.665Z,4.65
2019-05-06T18:21:52.791Z,4.83
2019-05-06T18:24:23.064Z,7.62
2019-05-06T18:26:52.862Z,4.70
2019-05-06T18:29:22.196Z,9.33
2019-05-06T18:31:52.473Z,5.10
2019-05-06T18:34:23.064Z,4.25
2019-05-06T18:36:52.521Z,4.80
2019-05-06T18:39:22.325Z,8.10
2019-05-06T18:41:53.105Z,8.33
2019-05-06T18:44:22.649Z,6.75
2019-05-06T18:46:53.024Z,6.85
2019-05-06T18:49:22.368Z,7.50
2019-05-06T18:51:52.007Z,6.10
2019-05-06T18:54:22.050Z,6.92
2019-05-06T18:56:52.229Z,7.78
2019-05-06T18:59:22.978Z,6.37
2019-05-06T19:01:50.875Z,5.10
2019-05-06T19:04:26.366Z,7.20
2019-05-06T19:07:09.188Z,5.47
2019-05-06T19:09:26.654Z,5.65
2019-05-06T19:11:55.061Z,6.67
2019-05-06T19:14:23.490Z,7.50
2019-05-06T19:16:54.975Z,9.63
2019-05-06T19:19:23.334Z,8.45
2019-05-06T19:21:52.396Z,6.35
2019-05-06T19:24:22.610Z,6.63
2019-05-06T19:26:52.720Z,8.20
2019-05-06T19:29:23.230Z,7.20
2019-05-06T19:31:52.167Z,4.45
2019-05-06T19:34:20.756Z,4.95
2019-05-06T19:36:49.197Z,7.65
2019-05-06T19:39:17.614Z,7.22
2019-05-06T19:41:46.135Z,7.15
2019-05-06T19:44:14.550Z,7.43
2019-05-06T19:46:42.965Z,5.25
2019-05-06T19:49:11.385Z,7.25
2019-05-06T19:51:39.807Z,8.63
2019-05-06T19:54:08.235Z,10.08
2019-05-06T19:56:36.670Z,7.37
2019-05-06T19:59:05.152Z,9.60
2019-05-06T20:01:33.584Z,7.20
2019-05-06T20:04:02.637Z,7.23
2019-05-06T20:06:41.485Z,10.53
2019-05-06T20:09:28.192Z,8.73
2019-05-06T20:12:02.844Z,7.20
2019-05-06T20:14:31.381Z,9.00
2019-05-06T20:16:59.817Z,9.20
2019-05-06T20:19:31.275Z,6.57
2019-05-06T20:21:58.382Z,8.10
2019-05-06T20:24:27.058Z,7.08
2019-05-06T20:26:55.502Z,8.35
2019-05-06T20:29:23.929Z,7.47
2019-05-06T20:31:53.466Z,7.87
2019-05-06T20:34:22.542Z,8.10
2019-05-06T20:36:52.839Z,8.08
2019-05-06T20:39:22.995Z,9.40
2019-05-06T20:41:51.634Z,8.83
2019-05-06T20:44:20.049Z,10.93
2019-05-06T20:46:48.489Z,8.15
2019-05-06T20:49:16.909Z,10.07
2019-05-06T20:51:45.588Z,9.45
2019-05-06T20:54:14.254Z,9.80
2019-05-06T20:56:42.744Z,8.80
2019-05-06T20:59:12.131Z,7.97
2019-05-06T21:01:42.535Z,10.07
2019-05-06T21:04:12.908Z,9.05
2019-05-06T21:06:42.579Z,7.30
2019-05-06T21:09:12.477Z,8.73
2019-05-06T21:11:42.153Z,5.75
2019-05-06T21:14:13.048Z,8.63
2019-05-06T21:16:42.248Z,8.20
2019-05-06T21:19:12.652Z,7.87
2019-05-06T21:21:43.178Z,6.63
2019-05-06T21:24:12.978Z,9.95
2019-05-06T21:26:42.531Z,7.50
2019-05-06T21:29:12.751Z,8.05
2019-05-06T21:31:42.258Z,5.43
2019-05-06T21:34:12.850Z,6.58
2019-05-06T21:36:42.206Z,6.78
2019-05-06T21:39:12.944Z,8.60
2019-05-06T21:41:42.762Z,6.22
2019-05-06T21:44:13.293Z,7.65
2019-05-06T21:46:42.922Z,4.80
2019-05-06T21:49:12.145Z,8.18
2019-05-06T21:51:42.543Z,7.93
2019-05-06T21:54:12.539Z,5.75
2019-05-06T21:56:42.495Z,6.30
2019-05-06T21:59:12.902Z,5.45
2019-05-06T22:01:42.962Z,7.30
2019-05-06T22:04:12.770Z,7.37
2019-05-06T22:06:42.737Z,6.47
2019-05-06T22:09:12.129Z,7.50
2019-05-06T22:11:42.386Z,8.33
2019-05-06T22:14:12.249Z,8.83
2019-05-06T22:16:40.995Z,10.80
2019-05-06T22:19:09.498Z,7.08
2019-05-06T22:21:57.477Z,8.33
2019-05-06T22:24:27.544Z,9.50
2019-05-06T22:26:55.968Z,8.63
2019-05-06T22:29:24.540Z,8.25
2019-05-06T22:31:52.984Z,11.45
2019-05-06T22:34:22.150Z,11.05
2019-05-06T22:36:51.952Z,7.40
2019-05-06T22:39:22.644Z,11.10
2019-05-06T22:41:52.034Z,7.37
2019-05-06T22:44:22.614Z,8.10
2019-05-06T22:46:50.744Z,6.97
2019-05-06T22:49:19.186Z,14.28
2019-05-06T22:51:47.610Z,9.73
2019-05-06T22:54:16.041Z,6.42
2019-05-06T22:56:44.461Z,10.35
2019-05-06T22:59:12.876Z,11.60
2019-05-06T23:01:48.933Z,10.08
2019-05-06T23:04:18.990Z,10.48
2019-05-06T23:06:47.421Z,9.23
2019-05-06T23:09:15.836Z,10.00
2019-05-06T23:11:44.257Z,7.75
2019-05-06T23:14:27.608Z,9.55
2019-05-06T23:16:42.836Z,8.48
2019-05-06T23:19:11.265Z,7.15
2019-05-06T23:21:39.698Z,9.80
2019-05-06T23:24:08.108Z,8.95
2019-05-06T23:26:36.528Z,6.97
2019-05-06T23:29:05.021Z,12.30
2019-05-06T23:31:33.481Z,8.73
2019-05-06T23:34:05.105Z,10.85
2019-05-06T23:36:59.416Z,10.78
2019-05-06T23:40:05.533Z,5.83
2019-05-06T23:43:10.001Z,10.60
2019-05-06T23:46:14.030Z,10.98
2019-05-06T23:49:18.257Z,9.90
2019-05-06T23:52:22.789Z,8.67
2019-05-06T23:55:27.301Z,10.30
2019-05-06T23:57:54.653Z,9.93
